Meteo Giornale » Osservazioni meteo Gran Bretagna » Benson

ore: 16:50 - Osservazioni Meteo Benson
Lat. 51° 37' N Lon. 1° 5' W Alt. 63 metri s.l.m.

nuvoloso Europe/London

10 °C

Nuvoloso

Temp. 24 Ore

1 °C

11 °C

Nord-Est

18.5 Km/h

Dew point -0 °C

Umidità 49 %

Visibilità  10 Km

Il sole sorge alle ore 06:37

Il sole tramonta alle ore 19:38

Data e Ora Cielo e Fenomeni T °C DP °C Um. % Pres. hPa Vis. km Vento km/h
Oggi h: 16:50 nuvoloso Nuvoloso 10 -0 49 1030 10 NE 18.5
Oggi h: 16:20 molto_nuvoloso Molto Nuvoloso 10 -1 46 1030 10 NE 22.2
Oggi h: 15:50 molto_nuvoloso Molto Nuvoloso 11 0 46 1030 10 NE 20.3
Oggi h: 15:20 molto_nuvoloso Molto Nuvoloso 9 -1 49 1030 10 N/NE 20.3
Oggi h: 14:50 molto_nuvoloso Molto Nuvoloso 10 1 53 1031 10 NE 18.5
Oggi h: 14:20 molto_nuvoloso Molto Nuvoloso 9 -0 53 1031 10 N/NE 20.3
Oggi h: 13:50 molto_nuvoloso Molto Nuvoloso 10 -0 49 1031 10 NE 18.5
Oggi h: 13:20 molto_nuvoloso Molto Nuvoloso 10 0 49 1031 10 E/NE 20.3
Oggi h: 12:50 molto_nuvoloso Molto Nuvoloso 9 0 53 1032 10 NE 25.9
Oggi h: 12:20 nuvoloso Nuvoloso 10 3 61 1032 10 NE 22.2
Oggi h: 11:50 nuvoloso Nuvoloso 8 2 65 1032 10 NE 25.9
Oggi h: 10:50 nuvoloso Nuvoloso 8 3 70 1033 10 NE 22.2
Oggi h: 09:50 nuvoloso Nuvoloso 6 3 81 1033 10 N/NE 16.7
Oggi h: 06:50 sereno Sereno 1 0 93 1032 10 N/NE 13
Oggi h: 05:50 poco_nuvoloso Poco Nuvoloso 1 1 100 1032 10 N/NE 11.1
Oggi h: 04:50 molto_nuvoloso Molto Nuvoloso 3 2 93 1032 10 N 9.3
Oggi h: 03:50 molto_nuvoloso Molto Nuvoloso 3 2 93 1032 10 N 7.4
Oggi h: 01:50 nuvoloso Nuvoloso 4 3 93 1032 10 N/NE 11.1
Oggi h: 00:50 molto_nuvoloso Molto Nuvoloso 5 3 86 1032 10 N/NE 14.8
Ieri h: 23:50 molto_nuvoloso Molto Nuvoloso 5 3 86 1032 10 N 11.1
Ieri h: 23:20 molto_nuvoloso Molto Nuvoloso 5 3 86 1032 10 N/NE 13
Ieri h: 22:50 molto_nuvoloso Molto Nuvoloso 5 3 86 1032 10 N 14.8
Ieri h: 22:20 molto_nuvoloso Molto Nuvoloso 5 3 86 1032 10 N/NE 14.8
Ieri h: 21:50 molto_nuvoloso Molto Nuvoloso 5 3 86 1032 10 N 13
Ieri h: 21:20 molto_nuvoloso Molto Nuvoloso 5 3 86 1032 10 N/NE 16.7
Ieri h: 20:50 nuvoloso_piovaschi Debole Rovescio di Pioggia 6 4 86 1032 10 N/NE 18.5
Ieri h: 20:20 molto_nuvoloso Molto Nuvoloso 6 4 86 1032 10 N/NE 20.3
Ieri h: 19:50 nuvoloso_piovaschi Debole Rovescio di Pioggia 6 4 86 1032 10 N/NE 20.3
Ieri h: 19:20 molto_nuvoloso Molto Nuvoloso 8 2 65 1032 10 N/NE 18.5
Ieri h: 18:50 molto_nuvoloso Molto Nuvoloso 8 3 70 1031 10 N 18.5
Ieri h: 18:20 poco_nuvoloso Poco Nuvoloso 8 2 65 1031 10 N/NE 20.3
Ieri h: 17:50 nuvoloso Nuvoloso 7 2 70 1031 10 N/NE 20.3